createdAt,value
2023-04-23T00:01:27.108Z,2.28
2023-04-23T00:03:57.244Z,2.72
2023-04-23T00:06:26.813Z,2.55
2023-04-23T00:08:55.100Z,2.28
2023-04-23T00:11:23.057Z,2.45
2023-04-23T00:13:50.908Z,2.35
2023-04-23T00:16:19.754Z,2.92
2023-04-23T00:18:49.618Z,2.38
2023-04-23T00:21:17.482Z,2.70
2023-04-23T00:23:45.376Z,3.55
2023-04-23T00:26:12.867Z,3.72
2023-04-23T00:28:40.732Z,3.53
2023-04-23T00:31:17.159Z,3.63
2023-04-23T00:33:44.692Z,4.32
2023-04-23T00:36:13.504Z,3.92
2023-04-23T00:38:41.055Z,3.92
2023-04-23T00:41:08.922Z,4.00
2023-04-23T00:43:36.458Z,3.78
2023-04-23T00:46:04.102Z,5.03
2023-04-23T00:48:31.829Z,4.45
2023-04-23T00:50:59.630Z,4.00
2023-04-23T00:53:29.066Z,4.15
2023-04-23T00:55:56.543Z,4.07
2023-04-23T00:58:24.341Z,4.35
2023-04-23T01:00:52.646Z,4.97
2023-04-23T01:03:21.789Z,4.18
2023-04-23T01:05:50.059Z,5.00
2023-04-23T01:08:18.457Z,5.25
2023-04-23T01:10:48.450Z,4.85
2023-04-23T01:13:16.903Z,4.90
2023-04-23T01:15:45.534Z,4.68
2023-04-23T01:18:13.391Z,4.82
2023-04-23T01:20:41.207Z,6.20
2023-04-23T01:23:10.132Z,4.72
2023-04-23T01:25:38.735Z,5.68
2023-04-23T01:28:06.853Z,5.13
2023-04-23T01:30:34.580Z,4.80
2023-04-23T01:33:02.759Z,5.70
2023-04-23T01:35:31.136Z,5.00
2023-04-23T01:38:00.817Z,5.47
2023-04-23T01:40:29.762Z,4.95
2023-04-23T01:42:57.596Z,5.55
2023-04-23T01:45:25.814Z,5.68
2023-04-23T01:47:53.592Z,5.93
2023-04-23T01:50:23.297Z,5.53
2023-04-23T01:52:53.820Z,6.82
2023-04-23T01:55:21.553Z,5.22
2023-04-23T01:57:51.799Z,4.82
2023-04-23T02:00:20.700Z,5.90
2023-04-23T02:02:48.354Z,5.95
2023-04-23T02:05:18.453Z,5.60
2023-04-23T02:07:46.484Z,6.22
2023-04-23T02:10:14.081Z,6.70
2023-04-23T02:12:41.786Z,4.70
2023-04-23T02:15:11.362Z,5.15
2023-04-23T02:17:40.017Z,6.97
2023-04-23T02:20:09.726Z,5.00
2023-04-23T02:22:38.055Z,5.22
2023-04-23T02:25:07.141Z,5.50
2023-04-23T02:27:34.682Z,5.57
2023-04-23T02:30:02.366Z,4.72
2023-04-23T02:32:34.267Z,5.65
2023-04-23T02:35:02.155Z,5.78
2023-04-23T02:37:29.790Z,5.47
2023-04-23T02:39:57.290Z,5.10
2023-04-23T02:42:24.771Z,6.38
2023-04-23T02:44:52.381Z,5.55
2023-04-23T02:47:20.146Z,6.50
2023-04-23T02:49:49.005Z,6.25
2023-04-23T02:52:16.579Z,5.45
2023-04-23T02:54:44.170Z,5.47
2023-04-23T02:57:14.349Z,5.30
2023-04-23T02:59:42.248Z,4.95
2023-04-23T03:02:09.933Z,5.30
2023-04-23T03:04:37.603Z,5.75
2023-04-23T03:07:06.564Z,6.38
2023-04-23T03:09:34.092Z,5.32
2023-04-23T03:12:02.379Z,5.78
2023-04-23T03:14:30.184Z,5.75
2023-04-23T03:16:57.725Z,6.20
2023-04-23T03:19:25.268Z,6.25
2023-04-23T03:21:53.651Z,6.43
2023-04-23T03:24:22.944Z,6.43
2023-04-23T03:26:50.452Z,6.07
2023-04-23T03:29:18.189Z,6.85
2023-04-23T03:31:45.718Z,6.55
2023-04-23T03:34:13.283Z,7.00
2023-04-23T03:36:40.978Z,7.18
2023-04-23T03:39:08.765Z,5.80
2023-04-23T03:41:37.600Z,6.28
2023-04-23T03:44:05.208Z,6.53
2023-04-23T03:46:32.828Z,6.72
2023-04-23T03:49:01.203Z,6.88
2023-04-23T03:51:28.774Z,7.15
2023-04-23T03:53:56.212Z,6.97
2023-04-23T03:56:25.187Z,8.40
2023-04-23T03:58:55.937Z,6.63
2023-04-23T04:01:23.429Z,7.25
2023-04-23T04:03:51.221Z,5.70
2023-04-23T04:06:18.891Z,6.72
2023-04-23T04:08:46.371Z,5.30
2023-04-23T04:11:13.857Z,6.00
2023-04-23T04:13:41.425Z,6.38
2023-04-23T04:16:10.850Z,7.13
2023-04-23T04:18:39.339Z,6.32
2023-04-23T04:21:07.466Z,7.20
2023-04-23T04:23:35.048Z,7.47
2023-04-23T04:26:03.458Z,6.15
2023-04-23T04:28:36.210Z,6.28
2023-04-23T04:31:03.908Z,6.97
2023-04-23T04:33:33.078Z,6.85
2023-04-23T04:36:01.748Z,7.13
2023-04-23T04:38:29.846Z,6.93
2023-04-23T04:40:58.916Z,6.88
2023-04-23T04:43:26.682Z,7.32
2023-04-23T04:45:54.221Z,9.13
2023-04-23T04:48:22.126Z,7.00
2023-04-23T04:50:51.050Z,5.78
2023-04-23T04:53:18.575Z,4.60
2023-04-23T04:55:46.097Z,4.22
2023-04-23T04:58:13.762Z,5.05
2023-04-23T05:00:41.361Z,3.60
2023-04-23T05:03:09.900Z,3.22
2023-04-23T05:05:39.319Z,2.92
2023-04-23T05:08:08.749Z,3.05
2023-04-23T05:10:36.303Z,3.15
2023-04-23T05:13:04.192Z,3.08
2023-04-23T05:15:31.808Z,3.00
2023-04-23T05:17:59.480Z,3.20
2023-04-23T05:20:27.307Z,3.17
2023-04-23T05:22:55.064Z,2.75
2023-04-23T05:25:23.927Z,2.95
2023-04-23T05:27:51.476Z,2.85
2023-04-23T05:30:19.105Z,2.97
2023-04-23T05:32:47.416Z,2.90
2023-04-23T05:35:15.005Z,2.50
2023-04-23T05:37:42.532Z,3.15
2023-04-23T05:40:10.791Z,2.63
2023-04-23T05:42:39.807Z,2.67
2023-04-23T05:45:09.052Z,2.78
2023-04-23T05:47:37.266Z,3.42
2023-04-23T05:50:31.532Z,2.90
2023-04-23T05:53:09.337Z,2.73
2023-04-23T05:55:36.982Z,2.83
2023-04-23T05:58:06.208Z,2.85
2023-04-23T06:00:35.484Z,3.65
2023-04-23T06:03:03.268Z,3.20
2023-04-23T06:05:31.082Z,3.30
2023-04-23T06:07:58.829Z,2.40
2023-04-23T06:10:26.461Z,3.03
2023-04-23T06:12:55.756Z,3.20
2023-04-23T06:15:27.290Z,3.40
2023-04-23T06:17:55.003Z,3.25
2023-04-23T06:20:23.237Z,3.75
2023-04-23T06:22:51.547Z,4.00
2023-04-23T06:25:19.118Z,3.53
2023-04-23T06:27:46.721Z,3.13
2023-04-23T06:30:14.696Z,3.03
2023-04-23T06:32:43.586Z,2.97
2023-04-23T06:35:11.123Z,3.67
2023-04-23T06:37:38.943Z,3.90
2023-04-23T06:40:07.654Z,3.25
2023-04-23T06:42:38.352Z,3.95
2023-04-23T06:45:06.595Z,3.72
2023-04-23T06:47:34.232Z,4.00
2023-04-23T06:50:03.174Z,3.83
2023-04-23T06:52:31.221Z,3.67
2023-04-23T06:54:58.699Z,3.60
2023-04-23T06:57:26.259Z,3.38
2023-04-23T06:59:53.936Z,3.72
2023-04-23T07:02:27.441Z,3.67
2023-04-23T07:04:55.095Z,3.95
2023-04-23T07:07:24.012Z,4.47
2023-04-23T07:09:51.515Z,4.32
2023-04-23T07:12:19.199Z,3.58
2023-04-23T07:14:47.338Z,4.07
2023-04-23T07:17:15.159Z,4.55
2023-04-23T07:19:42.791Z,4.00
2023-04-23T07:22:10.649Z,3.22
2023-04-23T07:24:39.609Z,3.63
2023-04-23T07:27:08.779Z,3.83
2023-04-23T07:29:36.271Z,3.45
2023-04-23T07:32:03.977Z,3.90
2023-04-23T07:34:31.782Z,3.88
2023-04-23T07:36:59.755Z,3.58
2023-04-23T07:39:27.288Z,3.95
2023-04-23T07:41:56.843Z,3.58
2023-04-23T07:44:27.190Z,4.03
2023-04-23T07:46:55.155Z,3.40
2023-04-23T07:49:25.607Z,3.15
2023-04-23T07:51:53.478Z,3.58
2023-04-23T07:54:21.120Z,3.40
2023-04-23T07:56:49.747Z,5.47
2023-04-23T07:59:21.651Z,2.88
2023-04-23T08:01:49.367Z,3.55
2023-04-23T08:04:17.225Z,4.13
2023-04-23T08:06:45.264Z,3.78
2023-04-23T08:09:12.852Z,3.75
2023-04-23T08:11:40.717Z,3.53
2023-04-23T08:14:09.853Z,3.28
2023-04-23T08:16:41.017Z,2.20
2023-04-23T08:19:08.580Z,2.25
2023-04-23T08:21:36.431Z,1.67
2023-04-23T08:24:04.323Z,2.20
2023-04-23T08:26:32.025Z,1.58
2023-04-23T08:29:00.685Z,1.63
2023-04-23T08:31:28.479Z,2.47
2023-04-23T08:34:03.196Z,1.80
2023-04-23T08:36:30.998Z,1.90
2023-04-23T08:38:58.577Z,3.13
2023-04-23T08:41:28.393Z,3.83
2023-04-23T08:43:59.632Z,1.83
2023-04-23T08:46:28.979Z,2.22
2023-04-23T08:49:05.051Z,2.45
2023-04-23T08:51:34.983Z,2.20
2023-04-23T08:54:06.785Z,1.92
2023-04-23T08:56:37.580Z,2.05
2023-04-23T08:59:05.771Z,2.50
2023-04-23T09:01:33.310Z,2.17
2023-04-23T09:04:02.324Z,2.97
2023-04-23T09:06:32.328Z,2.35
2023-04-23T09:09:00.637Z,1.90
2023-04-23T09:11:32.733Z,2.20
2023-04-23T09:14:00.309Z,2.10
2023-04-23T09:16:28.009Z,2.47
2023-04-23T09:18:55.564Z,2.00
2023-04-23T09:21:25.993Z,2.13
2023-04-23T09:23:53.671Z,2.08
2023-04-23T09:26:22.717Z,2.30
2023-04-23T09:28:51.357Z,1.95
2023-04-23T09:31:21.610Z,2.53
2023-04-23T09:33:51.808Z,2.30
2023-04-23T09:36:21.422Z,2.10
2023-04-23T09:38:50.572Z,2.63
2023-04-23T09:41:22.033Z,2.15
2023-04-23T09:43:49.912Z,2.38
2023-04-23T09:46:19.628Z,2.08
2023-04-23T09:48:48.840Z,2.00
2023-04-23T09:51:16.651Z,1.98
2023-04-23T09:53:45.880Z,1.80
2023-04-23T09:56:16.226Z,1.65
2023-04-23T09:58:47.583Z,2.10
2023-04-23T10:01:15.594Z,1.80
2023-04-23T10:03:44.013Z,2.08
2023-04-23T10:06:30.710Z,2.58
2023-04-23T10:09:02.674Z,2.22
2023-04-23T10:11:31.592Z,2.35
2023-04-23T10:14:04.890Z,2.03
2023-04-23T10:16:42.356Z,2.70
2023-04-23T10:19:20.092Z,2.60
2023-04-23T10:21:56.122Z,2.22
2023-04-23T10:24:30.429Z,2.08
2023-04-23T10:27:02.081Z,1.70
2023-04-23T10:29:30.852Z,1.98
2023-04-23T10:31:59.588Z,2.28
2023-04-23T10:34:29.139Z,2.03
2023-04-23T10:36:57.226Z,3.08
2023-04-23T10:39:30.053Z,1.85
2023-04-23T10:42:17.695Z,3.22
2023-04-23T10:44:58.023Z,2.08
2023-04-23T10:47:28.753Z,1.80
2023-04-23T10:49:58.198Z,2.03
2023-04-23T10:52:27.325Z,2.20
2023-04-23T10:55:01.496Z,1.92
2023-04-23T10:57:30.659Z,1.77
2023-04-23T10:59:59.036Z,1.80
2023-04-23T11:02:27.418Z,2.20
2023-04-23T11:04:57.624Z,2.50
2023-04-23T11:07:30.116Z,1.90
2023-04-23T11:09:59.883Z,2.00
2023-04-23T11:12:35.069Z,2.40
2023-04-23T11:15:11.265Z,2.00
2023-04-23T11:17:59.589Z,2.00
2023-04-23T11:20:29.532Z,2.67
2023-04-23T11:22:57.086Z,2.25
2023-04-23T11:25:27.451Z,2.45
2023-04-23T11:27:58.474Z,2.25
2023-04-23T11:30:28.411Z,2.50
2023-04-23T11:32:57.271Z,2.40
2023-04-23T11:35:28.516Z,2.22
2023-04-23T11:37:56.480Z,2.22
2023-04-23T11:40:25.916Z,2.45
2023-04-23T11:42:55.184Z,3.17
2023-04-23T11:45:28.046Z,1.85
2023-04-23T11:47:58.228Z,2.13
2023-04-23T11:50:27.274Z,1.73
2023-04-23T11:52:57.246Z,3.70
2023-04-23T11:55:24.865Z,2.33
2023-04-23T11:57:53.222Z,2.42
2023-04-23T12:00:25.084Z,2.10
2023-04-23T12:02:58.084Z,2.20
2023-04-23T12:05:32.735Z,1.67
2023-04-23T12:08:07.991Z,2.05
2023-04-23T12:10:42.975Z,2.38
2023-04-23T12:13:27.069Z,2.15
2023-04-23T12:15:56.668Z,1.90
2023-04-23T12:18:32.681Z,1.83
2023-04-23T12:21:08.543Z,1.92
2023-04-23T12:23:37.855Z,1.95
2023-04-23T12:26:11.851Z,2.13
2023-04-23T12:31:08.952Z,2.10
2023-04-23T12:33:37.829Z,2.05
2023-04-23T12:36:11.992Z,1.77
2023-04-23T12:38:40.253Z,2.05
2023-04-23T12:41:07.826Z,2.35
2023-04-23T12:43:35.545Z,1.77
2023-04-23T12:46:03.442Z,1.98
2023-04-23T12:48:31.004Z,1.67
2023-04-23T12:50:59.934Z,1.80
2023-04-23T12:53:27.784Z,1.75
2023-04-23T12:55:55.306Z,2.20
2023-04-23T12:58:22.827Z,1.85
2023-04-23T13:00:50.426Z,1.98
2023-04-23T13:03:19.318Z,1.80
2023-04-23T13:05:48.112Z,2.15
2023-04-23T13:08:17.098Z,1.58
2023-04-23T13:10:44.924Z,2.28
2023-04-23T13:13:15.418Z,1.40
2023-04-23T13:15:43.500Z,1.40
2023-04-23T13:18:10.959Z,1.88
2023-04-23T13:20:38.453Z,1.50
2023-04-23T13:24:00.891Z,1.38
2023-04-23T13:26:30.580Z,1.98
2023-04-23T13:28:58.251Z,1.58
2023-04-23T13:31:27.293Z,1.40
2023-04-23T13:33:55.156Z,1.80
2023-04-23T13:36:22.844Z,1.50
2023-04-23T13:38:55.543Z,1.60
2023-04-23T13:41:23.219Z,3.78
2023-04-23T13:43:55.578Z,1.90
2023-04-23T13:46:32.355Z,1.98
2023-04-23T13:49:00.191Z,1.98
2023-04-23T13:51:35.851Z,1.98
2023-04-23T13:54:04.171Z,1.92
2023-04-23T13:56:32.230Z,1.90
2023-04-23T14:01:32.784Z,2.08
2023-04-23T14:04:00.400Z,2.30
2023-04-23T14:06:28.159Z,1.95
2023-04-23T14:08:55.855Z,2.80
2023-04-23T14:11:24.801Z,2.20
2023-04-23T14:13:52.341Z,2.40
2023-04-23T14:16:21.356Z,2.10
2023-04-23T14:18:48.973Z,2.20
2023-04-23T14:21:16.619Z,2.60
2023-04-23T14:23:45.781Z,2.20
2023-04-23T14:26:21.700Z,1.98
2023-04-23T14:28:52.050Z,1.65
2023-04-23T14:31:20.976Z,2.15
2023-04-23T14:33:48.504Z,1.80
2023-04-23T14:36:16.235Z,2.10
2023-04-23T14:38:44.276Z,1.90
2023-04-23T14:41:11.960Z,2.10
2023-04-23T14:43:40.063Z,1.92
2023-04-23T14:46:07.721Z,2.00
2023-04-23T14:48:36.831Z,1.92
2023-04-23T14:51:07.173Z,1.83
2023-04-23T14:53:37.758Z,2.20
2023-04-23T14:56:05.813Z,1.75
2023-04-23T14:58:34.470Z,2.10
2023-04-23T15:01:02.102Z,2.33
2023-04-23T15:03:40.173Z,2.08
2023-04-23T15:06:10.056Z,1.88
2023-04-23T15:08:39.558Z,2.17
2023-04-23T15:11:13.195Z,2.65
2023-04-23T15:13:45.402Z,2.20
2023-04-23T15:16:40.591Z,2.70
2023-04-23T15:19:17.785Z,2.03
2023-04-23T15:21:45.848Z,2.25
2023-04-23T15:24:13.438Z,2.63
2023-04-23T15:26:41.185Z,2.35
2023-04-23T15:29:10.072Z,2.17
2023-04-23T15:31:37.941Z,2.00
2023-04-23T15:34:08.621Z,2.20
2023-04-23T15:36:40.490Z,2.10
2023-04-23T15:39:10.179Z,1.88
2023-04-23T15:41:40.596Z,2.53
2023-04-23T15:44:10.913Z,2.30
2023-04-23T15:46:38.696Z,2.53
2023-04-23T15:49:07.373Z,2.28
2023-04-23T15:51:35.217Z,3.17
2023-04-23T15:54:08.013Z,2.22
2023-04-23T15:56:36.439Z,2.70
2023-04-23T15:59:04.008Z,2.05
2023-04-23T16:01:32.233Z,2.72
2023-04-23T16:04:09.434Z,3.00
2023-04-23T16:06:40.805Z,1.95
2023-04-23T16:09:09.750Z,2.45
2023-04-23T16:11:37.355Z,2.10
2023-04-23T16:14:04.975Z,2.30
2023-04-23T16:16:32.709Z,2.10
2023-04-23T16:19:03.079Z,2.47
2023-04-23T16:21:31.278Z,2.22
2023-04-23T16:23:58.851Z,2.35
2023-04-23T16:26:30.637Z,2.42
2023-04-23T16:29:06.276Z,2.08
2023-04-23T16:31:45.018Z,1.98
2023-04-23T16:34:14.602Z,2.92
2023-04-23T16:36:42.153Z,2.33
2023-04-23T16:39:11.528Z,2.40
2023-04-23T16:41:40.504Z,1.85
2023-04-23T16:44:08.062Z,2.22
2023-04-23T16:46:38.974Z,2.15
2023-04-23T16:49:20.124Z,2.45
2023-04-23T16:51:47.790Z,2.47
2023-04-23T16:54:15.313Z,3.17
2023-04-23T16:56:46.276Z,2.83
2023-04-23T16:59:16.387Z,2.72
2023-04-23T17:01:48.341Z,3.35
2023-04-23T17:04:18.853Z,2.53
2023-04-23T17:06:49.432Z,3.13
2023-04-23T17:09:19.669Z,2.55
2023-04-23T17:11:49.935Z,3.10
2023-04-23T17:14:17.521Z,2.78
2023-04-23T17:16:45.331Z,2.58
2023-04-23T17:19:12.905Z,2.90
2023-04-23T17:21:40.646Z,2.70
2023-04-23T17:24:08.201Z,2.85
2023-04-23T17:26:37.971Z,2.60
2023-04-23T17:29:06.984Z,2.60
2023-04-23T17:31:36.086Z,2.70
2023-04-23T17:34:15.260Z,3.83
2023-04-23T17:36:42.758Z,4.03
2023-04-23T17:39:11.631Z,4.53
2023-04-23T17:41:39.286Z,3.90
2023-04-23T17:44:08.575Z,3.20
2023-04-23T17:46:41.194Z,3.30
2023-04-23T17:49:11.859Z,3.42
2023-04-23T17:51:43.626Z,3.20
2023-04-23T17:54:11.388Z,4.05
2023-04-23T17:56:41.896Z,4.90
2023-04-23T17:59:17.392Z,4.20
2023-04-23T18:01:50.204Z,5.03
2023-04-23T18:04:18.583Z,5.28
2023-04-23T18:06:51.478Z,11.63
2023-04-23T18:12:18.799Z,4.47
2023-04-23T18:14:48.045Z,5.30
2023-04-23T18:17:20.328Z,5.18
2023-04-23T18:19:53.508Z,5.15
2023-04-23T18:22:22.706Z,4.55
2023-04-23T18:24:52.776Z,5.60
2023-04-23T18:27:31.666Z,5.07
2023-04-23T18:30:01.690Z,4.03
2023-04-23T18:32:42.029Z,4.75
2023-04-23T18:35:25.914Z,5.70
2023-04-23T18:37:54.673Z,4.77
2023-04-23T18:40:22.371Z,6.18
2023-04-23T18:42:50.054Z,5.65
2023-04-23T18:45:23.493Z,5.47
2023-04-23T18:53:39.891Z,5.97
2023-04-23T18:56:08.021Z,8.68
2023-04-23T18:58:39.321Z,6.88
2023-04-23T19:01:08.376Z,7.72
2023-04-23T19:03:36.140Z,9.18
2023-04-23T19:06:07.307Z,10.30
2023-04-23T19:08:38.336Z,10.52
2023-04-23T19:11:06.308Z,7.00
2023-04-23T19:13:34.295Z,9.23
2023-04-23T19:16:01.883Z,8.75
2023-04-23T19:18:30.879Z,11.00
2023-04-23T19:20:58.945Z,10.48
2023-04-23T19:23:26.468Z,8.95
2023-04-23T19:25:54.069Z,7.88
2023-04-23T19:28:21.584Z,7.40
2023-04-23T19:30:49.104Z,6.68
2023-04-23T19:33:22.272Z,6.80
2023-04-23T19:35:51.219Z,6.35
2023-04-23T19:38:18.920Z,7.40
2023-04-23T19:40:46.616Z,7.75
2023-04-23T19:43:14.257Z,7.20
2023-04-23T19:45:41.751Z,7.50
2023-04-23T19:48:09.377Z,9.30
2023-04-23T19:50:37.022Z,9.35
2023-04-23T19:53:06.766Z,8.63
2023-04-23T19:55:34.324Z,8.75
2023-04-23T20:00:57.946Z,7.60
2023-04-23T20:03:26.313Z,7.25
2023-04-23T20:06:18.889Z,7.90
2023-04-23T20:09:07.475Z,8.20
2023-04-23T20:11:35.835Z,11.48
2023-04-23T20:14:03.361Z,10.60
2023-04-23T20:16:54.894Z,8.52
2023-04-23T20:19:25.710Z,9.55
2023-04-23T20:21:53.613Z,9.63
2023-04-23T20:24:24.975Z,9.68
2023-04-23T20:26:52.541Z,10.50
2023-04-23T20:29:20.140Z,14.82
2023-04-23T20:31:49.648Z,9.90
2023-04-23T20:34:17.378Z,10.98
2023-04-23T20:36:47.063Z,10.95
2023-04-23T20:42:08.940Z,11.13
2023-04-23T20:44:36.463Z,11.05
2023-04-23T20:47:08.376Z,11.50
2023-04-23T20:49:36.014Z,11.35
2023-04-23T20:52:03.560Z,11.88
2023-04-23T20:54:31.135Z,12.57
2023-04-23T20:56:58.733Z,13.05
2023-04-23T20:59:27.718Z,13.35
2023-04-23T21:01:55.389Z,14.25
2023-04-23T21:04:23.341Z,14.98
2023-04-23T21:06:51.148Z,16.35
2023-04-23T21:09:18.742Z,14.93
2023-04-23T21:11:46.429Z,13.40
2023-04-23T21:14:14.084Z,13.60
2023-04-23T21:16:44.245Z,14.50
2023-04-23T21:19:11.799Z,13.45
2023-04-23T21:21:41.676Z,15.73
2023-04-23T21:24:09.158Z,13.70
2023-04-23T21:26:36.738Z,13.07
2023-04-23T21:29:04.479Z,14.23
2023-04-23T21:31:38.982Z,13.25
2023-04-23T21:34:07.977Z,14.63
2023-04-23T21:36:35.459Z,14.50
2023-04-23T21:39:03.081Z,12.77
2023-04-23T21:41:30.862Z,12.10
2023-04-23T21:43:58.408Z,12.02
2023-04-23T21:46:26.010Z,11.70
2023-04-23T21:48:54.050Z,9.88
2023-04-23T21:51:25.106Z,11.70
2023-04-23T21:53:52.801Z,12.10
2023-04-23T21:56:21.306Z,10.35
2023-04-23T21:58:48.858Z,12.63
2023-04-23T22:01:17.487Z,10.45
2023-04-23T22:03:46.836Z,10.50
2023-04-23T22:06:15.622Z,10.80
2023-04-23T22:08:46.550Z,10.77
2023-04-23T22:11:14.711Z,10.15
2023-04-23T22:13:42.276Z,10.05
2023-04-23T22:16:24.434Z,11.00
2023-04-23T22:18:54.752Z,11.60
2023-04-23T22:21:22.424Z,10.57
2023-04-23T22:23:51.307Z,12.07
2023-04-23T22:26:18.894Z,11.95
2023-04-23T22:28:46.641Z,11.52
2023-04-23T22:31:14.341Z,11.25
2023-04-23T22:33:41.819Z,13.27
2023-04-23T22:36:09.342Z,11.88
2023-04-23T22:38:36.807Z,12.73
2023-04-23T22:41:06.181Z,13.00
2023-04-23T22:43:34.316Z,11.90
2023-04-23T22:46:01.979Z,12.07
2023-04-23T22:48:30.809Z,11.27
2023-04-23T22:50:59.297Z,11.50
2023-04-23T22:53:28.199Z,10.90
2023-04-23T22:55:56.064Z,12.40
2023-04-23T22:58:24.955Z,12.63
2023-04-23T23:00:52.404Z,11.27
2023-04-23T23:03:19.988Z,10.93
2023-04-23T23:05:47.696Z,11.57
2023-04-23T23:08:15.293Z,12.35
2023-04-23T23:10:42.836Z,12.32
2023-04-23T23:16:05.879Z,12.32
2023-04-23T23:18:33.572Z,12.15
2023-04-23T23:21:01.096Z,13.02
2023-04-23T23:23:28.697Z,11.90
2023-04-23T23:25:57.705Z,11.77
2023-04-23T23:28:26.947Z,11.07
2023-04-23T23:30:55.578Z,10.85
2023-04-23T23:33:24.775Z,10.82
2023-04-23T23:35:52.824Z,10.68
2023-04-23T23:38:20.917Z,11.02
2023-04-23T23:40:48.650Z,14.32
2023-04-23T23:43:16.244Z,12.07
2023-04-23T23:45:43.806Z,12.40
2023-04-23T23:48:36.062Z,12.30
2023-04-23T23:51:05.361Z,11.20
2023-04-23T23:53:32.809Z,11.30
2023-04-23T23:56:00.868Z,10.65
